ARG1498 SABE-SASA
Flight info
| Callsign | ARG1498 |
|---|---|
| Flight time | 1h 49m |
| Altitude | 34000 |
| Route | BIVAM4B BIVAM UW8 ERE UT672 DADMI UT677 ILPAR |
| Aircraft | B738/M-MSDFGHILRVWS/LB1 |
Departure
| Time | 2026-05-07 19:34 |
|---|---|
| Airport | Aeroparque Jorge Newbery (SABE) |
Arrival
| Time | 2026-05-07 21:23 |
|---|---|
| Airport | Martín Miguel de Güemes International Airport (SASA) |
| Time | Latitude | Longitude | Altitude | Speed | Heading |
|---|---|---|---|---|---|
| 2026-05-07 18:34 | -34.55608 | -58.41670 | 25 ft | 0 kts | 34° |
| 2026-05-07 19:24 | -34.55608 | -58.41671 | 27 ft | 1 kts | 34° |
| 2026-05-07 19:25 | -34.55624 | -58.41684 | 30 ft | 3 kts | 33° |
| 2026-05-07 19:25 | -34.55642 | -58.41696 | 27 ft | 3 kts | 22° |
| 2026-05-07 19:25 | -34.55658 | -58.41702 | 30 ft | 3 kts | 341° |
| 2026-05-07 19:25 | -34.55670 | -58.41691 | 26 ft | 3 kts | 304° |
| 2026-05-07 19:26 | -34.55681 | -58.41671 | 26 ft | 2 kts | 304° |
| 2026-05-07 19:26 | -34.55682 | -58.41669 | 26 ft | 0 kts | 304° |
| 2026-05-07 19:28 | -34.55661 | -58.41707 | 30 ft | 10 kts | 304° |
| 2026-05-07 19:28 | -34.55617 | -58.41786 | 24 ft | 10 kts | 304° |
| 2026-05-07 19:29 | -34.55633 | -58.41854 | 24 ft | 9 kts | 216° |
| 2026-05-07 19:29 | -34.55689 | -58.41840 | 26 ft | 11 kts | 125° |
| 2026-05-07 19:29 | -34.55749 | -58.41724 | 27 ft | 21 kts | 117° |
| 2026-05-07 19:29 | -34.55809 | -58.41579 | 26 ft | 18 kts | 117° |
| 2026-05-07 19:30 | -34.55865 | -58.41445 | 28 ft | 18 kts | 117° |
| 2026-05-07 19:30 | -34.55920 | -58.41316 | 24 ft | 17 kts | 117° |
| 2026-05-07 19:30 | -34.55986 | -58.41201 | 26 ft | 16 kts | 128° |
| 2026-05-07 19:30 | -34.56054 | -58.41094 | 25 ft | 16 kts | 127° |
| 2026-05-07 19:31 | -34.56097 | -58.41024 | 27 ft | 15 kts | 128° |
| 2026-05-07 19:31 | -34.56175 | -58.40887 | 26 ft | 14 kts | 122° |
| 2026-05-07 19:31 | -34.56188 | -58.40809 | 24 ft | 14 kts | 101° |
| 2026-05-07 19:31 | -34.56238 | -58.40712 | 24 ft | 13 kts | 124° |
| 2026-05-07 19:32 | -34.56289 | -58.40621 | 26 ft | 13 kts | 124° |
| 2026-05-07 19:32 | -34.56349 | -58.40540 | 28 ft | 14 kts | 139° |
| 2026-05-07 19:32 | -34.56432 | -58.40451 | 24 ft | 17 kts | 138° |
| 2026-05-07 19:32 | -34.56501 | -58.40381 | 24 ft | 10 kts | 159° |
| 2026-05-07 19:33 | -34.56559 | -58.40418 | 28 ft | 10 kts | 238° |
| 2026-05-07 19:33 | -34.56534 | -58.40490 | 26 ft | 10 kts | 309° |
| 2026-05-07 19:33 | -34.56495 | -58.40556 | 27 ft | 12 kts | 303° |
| 2026-05-07 19:33 | -34.56373 | -58.40776 | 28 ft | 65 kts | 304° |
| 2026-05-07 19:34 | -34.55991 | -58.41463 | 27 ft | 131 kts | 304° |
| 2026-05-07 19:34 | -34.55392 | -58.42513 | 313 ft | 161 kts | 301° |
| 2026-05-07 19:34 | -34.54747 | -58.43670 | 1078 ft | 168 kts | 300° |
| 2026-05-07 19:34 | -34.53714 | -58.44586 | 1535 ft | 205 kts | 337° |
| 2026-05-07 19:35 | -34.52241 | -58.44730 | 2075 ft | 223 kts | 4° |
| 2026-05-07 19:35 | -34.50753 | -58.44020 | 2573 ft | 237 kts | 27° |
| 2026-05-07 19:35 | -34.49264 | -58.42944 | 2797 ft | 261 kts | 29° |
| 2026-05-07 19:35 | -34.47674 | -58.41761 | 3154 ft | 278 kts | 29° |
| 2026-05-07 19:36 | -34.45983 | -58.40500 | 3635 ft | 289 kts | 27° |
| 2026-05-07 19:36 | -34.44263 | -58.39214 | 4502 ft | 290 kts | 27° |
| 2026-05-07 19:36 | -34.42564 | -58.37935 | 5615 ft | 283 kts | 26° |
| 2026-05-07 19:36 | -34.40783 | -58.37163 | 6623 ft | 267 kts | 356° |
| 2026-05-07 19:37 | -34.39050 | -58.37634 | 7476 ft | 258 kts | 330° |
| 2026-05-07 19:37 | -34.37550 | -58.38821 | 8278 ft | 260 kts | 315° |
| 2026-05-07 19:37 | -34.36309 | -58.40431 | 9114 ft | 263 kts | 311° |
| 2026-05-07 19:37 | -34.35098 | -58.42125 | 9841 ft | 268 kts | 311° |
| 2026-05-07 19:38 | -34.33847 | -58.43894 | 10158 ft | 289 kts | 311° |
| 2026-05-07 19:38 | -34.32480 | -58.45820 | 10340 ft | 312 kts | 311° |
| 2026-05-07 19:38 | -34.31025 | -58.47859 | 10595 ft | 332 kts | 311° |
| 2026-05-07 19:38 | -34.29475 | -58.50018 | 11211 ft | 338 kts | 310° |
| 2026-05-07 19:39 | -34.27942 | -58.52149 | 11928 ft | 341 kts | 310° |
| 2026-05-07 19:39 | -34.26375 | -58.54323 | 12621 ft | 345 kts | 310° |
| 2026-05-07 19:39 | -34.24790 | -58.56519 | 13335 ft | 348 kts | 309° |
| 2026-05-07 19:39 | -34.23189 | -58.58733 | 14014 ft | 350 kts | 309° |
| 2026-05-07 19:40 | -34.21583 | -58.60952 | 14751 ft | 350 kts | 310° |
| 2026-05-07 19:40 | -34.19978 | -58.63167 | 15505 ft | 350 kts | 310° |
| 2026-05-07 19:40 | -34.18375 | -58.65378 | 16217 ft | 350 kts | 310° |
| 2026-05-07 19:40 | -34.16763 | -58.67600 | 16906 ft | 351 kts | 311° |
| 2026-05-07 19:41 | -34.15150 | -58.69821 | 17610 ft | 352 kts | 311° |
| 2026-05-07 19:41 | -34.13531 | -58.72050 | 18243 ft | 353 kts | 311° |
| 2026-05-07 19:41 | -34.11917 | -58.74269 | 18892 ft | 351 kts | 311° |
| 2026-05-07 19:41 | -34.10307 | -58.76483 | 19553 ft | 350 kts | 312° |
| 2026-05-07 19:42 | -34.08719 | -58.78663 | 20153 ft | 350 kts | 313° |
| 2026-05-07 19:42 | -34.07116 | -58.80864 | 20738 ft | 350 kts | 313° |
| 2026-05-07 19:42 | -34.05503 | -58.83075 | 21317 ft | 350 kts | 313° |
| 2026-05-07 19:42 | -34.03894 | -58.85281 | 21882 ft | 350 kts | 314° |
| 2026-05-07 19:43 | -34.02283 | -58.87487 | 22435 ft | 351 kts | 314° |
| 2026-05-07 19:43 | -34.00670 | -58.89696 | 22955 ft | 352 kts | 314° |
| 2026-05-07 19:43 | -33.99051 | -58.91914 | 23438 ft | 352 kts | 315° |
| 2026-05-07 19:43 | -33.97323 | -58.94006 | 23796 ft | 352 kts | 321° |
| 2026-05-07 19:44 | -33.95397 | -58.95833 | 24159 ft | 352 kts | 327° |
| 2026-05-07 19:44 | -33.93315 | -58.97394 | 24517 ft | 353 kts | 329° |
| 2026-05-07 19:44 | -33.91208 | -58.98930 | 24880 ft | 355 kts | 330° |
| 2026-05-07 19:44 | -33.89086 | -59.00472 | 25227 ft | 357 kts | 330° |
| 2026-05-07 19:45 | -33.86978 | -59.02003 | 25558 ft | 359 kts | 330° |
| 2026-05-07 19:45 | -33.84811 | -59.03578 | 25925 ft | 361 kts | 330° |
| 2026-05-07 19:45 | -33.82643 | -59.05156 | 26136 ft | 366 kts | 330° |
| 2026-05-07 19:45 | -33.80454 | -59.06748 | 26430 ft | 368 kts | 331° |
| 2026-05-07 19:46 | -33.78260 | -59.08345 | 26767 ft | 369 kts | 331° |
| 2026-05-07 19:46 | -33.76057 | -59.09949 | 27067 ft | 371 kts | 331° |
| 2026-05-07 19:46 | -33.73841 | -59.11561 | 27337 ft | 373 kts | 331° |
| 2026-05-07 19:46 | -33.71613 | -59.13181 | 27632 ft | 375 kts | 332° |
| 2026-05-07 19:47 | -33.69403 | -59.14788 | 27959 ft | 376 kts | 332° |
| 2026-05-07 19:47 | -33.67171 | -59.16410 | 28410 ft | 373 kts | 332° |
| 2026-05-07 19:47 | -33.64960 | -59.18018 | 28899 ft | 371 kts | 332° |
| 2026-05-07 19:47 | -33.62748 | -59.19625 | 29339 ft | 369 kts | 333° |
| 2026-05-07 19:48 | -33.60553 | -59.21218 | 29731 ft | 369 kts | 333° |
| 2026-05-07 19:48 | -33.58356 | -59.22811 | 30036 ft | 369 kts | 333° |
| 2026-05-07 19:48 | -33.56164 | -59.24400 | 30351 ft | 368 kts | 333° |
| 2026-05-07 19:48 | -33.53972 | -59.25987 | 30700 ft | 367 kts | 333° |
| 2026-05-07 19:49 | -33.51793 | -59.27564 | 31061 ft | 365 kts | 333° |
| 2026-05-07 19:49 | -33.49623 | -59.29134 | 31425 ft | 363 kts | 333° |
| 2026-05-07 19:49 | -33.47492 | -59.30675 | 31799 ft | 361 kts | 333° |
| 2026-05-07 19:49 | -33.45350 | -59.32222 | 32231 ft | 358 kts | 332° |
| 2026-05-07 19:50 | -33.43221 | -59.33759 | 32685 ft | 354 kts | 332° |
| 2026-05-07 19:50 | -33.41119 | -59.35277 | 32959 ft | 354 kts | 332° |
| 2026-05-07 19:50 | -33.36846 | -59.38352 | 33157 ft | 362 kts | 332° |
| 2026-05-07 19:51 | -33.34687 | -59.39905 | 33372 ft | 362 kts | 332° |
| 2026-05-07 19:51 | -33.32535 | -59.41454 | 33691 ft | 361 kts | 332° |
| 2026-05-07 19:51 | -33.28202 | -59.44569 | 33693 ft | 365 kts | 332° |
| 2026-05-07 19:52 | -33.23876 | -59.47677 | 33691 ft | 359 kts | 332° |
| 2026-05-07 19:52 | -33.19605 | -59.50742 | 33701 ft | 356 kts | 332° |
| 2026-05-07 19:53 | -33.15384 | -59.53765 | 33709 ft | 356 kts | 332° |
| 2026-05-07 19:53 | -33.11132 | -59.56807 | 33706 ft | 356 kts | 332° |
| 2026-05-07 19:54 | -33.06867 | -59.59854 | 33708 ft | 357 kts | 332° |
| 2026-05-07 19:54 | -33.02585 | -59.62910 | 33726 ft | 360 kts | 332° |
| 2026-05-07 19:55 | -32.98275 | -59.65983 | 33709 ft | 362 kts | 332° |
| 2026-05-07 19:55 | -32.93935 | -59.69074 | 33716 ft | 365 kts | 332° |
| 2026-05-07 19:56 | -32.89562 | -59.72184 | 33716 ft | 367 kts | 332° |
| 2026-05-07 19:56 | -32.85167 | -59.75306 | 33715 ft | 369 kts | 332° |
| 2026-05-07 19:57 | -32.80757 | -59.78435 | 33704 ft | 369 kts | 332° |
| 2026-05-07 19:57 | -32.76366 | -59.81547 | 33711 ft | 369 kts | 332° |
| 2026-05-07 19:58 | -32.71930 | -59.84687 | 33713 ft | 368 kts | 332° |
| 2026-05-07 19:58 | -32.67560 | -59.87773 | 33712 ft | 367 kts | 332° |
| 2026-05-07 19:59 | -32.63159 | -59.90878 | 33721 ft | 368 kts | 330° |
| 2026-05-07 19:59 | -32.58756 | -59.93987 | 33715 ft | 369 kts | 330° |
| 2026-05-07 20:00 | -32.54338 | -59.97114 | 33718 ft | 370 kts | 330° |
| 2026-05-07 20:00 | -32.49906 | -60.00265 | 33722 ft | 372 kts | 328° |
| 2026-05-07 20:01 | -32.45519 | -60.03555 | 33716 ft | 373 kts | 330° |
| 2026-05-07 20:01 | -32.41009 | -60.06625 | 33719 ft | 374 kts | 330° |
| 2026-05-07 20:02 | -32.36492 | -60.09722 | 33725 ft | 376 kts | 329° |
| 2026-05-07 20:02 | -32.31980 | -60.12860 | 33731 ft | 377 kts | 329° |
| 2026-05-07 20:03 | -32.27486 | -60.16005 | 33731 ft | 378 kts | 329° |
| 2026-05-07 20:03 | -32.22945 | -60.19184 | 33715 ft | 383 kts | 328° |
| 2026-05-07 20:04 | -32.18336 | -60.22407 | 33747 ft | 386 kts | 328° |
| 2026-05-07 20:04 | -32.13704 | -60.25641 | 33743 ft | 385 kts | 328° |
| 2026-05-07 20:05 | -32.09088 | -60.28861 | 33760 ft | 384 kts | 328° |
| 2026-05-07 20:05 | -32.04486 | -60.32067 | 33776 ft | 384 kts | 328° |
| 2026-05-07 20:06 | -31.99879 | -60.35272 | 33786 ft | 383 kts | 329° |
| 2026-05-07 20:06 | -31.95307 | -60.38448 | 33804 ft | 382 kts | 329° |
| 2026-05-07 20:07 | -31.90740 | -60.41616 | 33823 ft | 381 kts | 329° |
| 2026-05-07 20:07 | -31.86175 | -60.44777 | 33829 ft | 380 kts | 329° |
| 2026-05-07 20:08 | -31.81629 | -60.47927 | 33816 ft | 385 kts | 328° |
| 2026-05-07 20:08 | -31.77031 | -60.51273 | 33832 ft | 392 kts | 326° |
| 2026-05-07 20:09 | -31.72485 | -60.54806 | 33818 ft | 392 kts | 326° |
| 2026-05-07 20:10 | -31.65632 | -60.60098 | 33818 ft | 393 kts | 326° |
| 2026-05-07 20:10 | -31.61012 | -60.63624 | 33778 ft | 393 kts | 326° |
| 2026-05-07 20:11 | -31.57201 | -60.66522 | 33776 ft | 392 kts | 327° |
| 2026-05-07 20:11 | -31.52634 | -60.69988 | 33782 ft | 389 kts | 327° |
| 2026-05-07 20:12 | -31.47368 | -60.73978 | 33787 ft | 386 kts | 327° |
| 2026-05-07 20:12 | -31.43583 | -60.76844 | 33799 ft | 390 kts | 326° |
| 2026-05-07 20:13 | -31.38973 | -60.80330 | 33799 ft | 398 kts | 326° |
| 2026-05-07 20:13 | -31.34324 | -60.83839 | 33803 ft | 401 kts | 326° |
| 2026-05-07 20:14 | -31.29622 | -60.87382 | 33816 ft | 403 kts | 326° |
| 2026-05-07 20:14 | -31.24902 | -60.90936 | 33809 ft | 403 kts | 326° |
| 2026-05-07 20:15 | -31.20185 | -60.94482 | 33798 ft | 403 kts | 326° |
| 2026-05-07 20:15 | -31.15474 | -60.98020 | 33813 ft | 402 kts | 326° |
| 2026-05-07 20:16 | -31.10775 | -61.01539 | 33817 ft | 401 kts | 326° |
| 2026-05-07 20:16 | -31.06068 | -61.05063 | 33833 ft | 402 kts | 325° |
| 2026-05-07 20:17 | -31.01312 | -61.08632 | 33834 ft | 411 kts | 325° |
| 2026-05-07 20:17 | -30.96467 | -61.12268 | 33839 ft | 416 kts | 324° |
| 2026-05-07 20:18 | -30.91596 | -61.15907 | 33838 ft | 419 kts | 325° |
| 2026-05-07 20:18 | -30.86673 | -61.19573 | 33832 ft | 420 kts | 325° |
| 2026-05-07 20:19 | -30.81748 | -61.23235 | 33833 ft | 419 kts | 325° |
| 2026-05-07 20:19 | -30.76843 | -61.26877 | 33839 ft | 417 kts | 324° |
| 2026-05-07 20:20 | -30.71969 | -61.30492 | 33839 ft | 414 kts | 324° |
| 2026-05-07 20:20 | -30.67125 | -61.34081 | 33867 ft | 412 kts | 324° |
| 2026-05-07 20:21 | -30.62292 | -61.37660 | 33858 ft | 412 kts | 324° |
| 2026-05-07 20:21 | -30.57453 | -61.41237 | 33853 ft | 413 kts | 324° |
| 2026-05-07 20:22 | -30.52598 | -61.44821 | 33857 ft | 415 kts | 324° |
| 2026-05-07 20:22 | -30.47710 | -61.48424 | 33857 ft | 417 kts | 324° |
| 2026-05-07 20:23 | -30.42827 | -61.52019 | 33855 ft | 419 kts | 324° |
| 2026-05-07 20:23 | -30.37887 | -61.55651 | 33837 ft | 421 kts | 324° |
| 2026-05-07 20:24 | -30.32933 | -61.59287 | 33844 ft | 422 kts | 324° |
| 2026-05-07 20:24 | -30.27979 | -61.62921 | 33849 ft | 421 kts | 324° |
| 2026-05-07 20:25 | -30.23029 | -61.66547 | 33853 ft | 420 kts | 324° |
| 2026-05-07 20:25 | -30.18090 | -61.70160 | 33859 ft | 419 kts | 324° |
| 2026-05-07 20:26 | -30.13163 | -61.73760 | 33848 ft | 418 kts | 323° |
| 2026-05-07 20:26 | -30.08286 | -61.77319 | 33858 ft | 416 kts | 323° |
| 2026-05-07 20:27 | -30.03393 | -61.80884 | 33860 ft | 415 kts | 323° |
| 2026-05-07 20:27 | -29.98511 | -61.84435 | 33864 ft | 414 kts | 324° |
| 2026-05-07 20:28 | -29.93644 | -61.87966 | 33834 ft | 413 kts | 323° |
| 2026-05-07 20:28 | -29.88789 | -61.91493 | 33855 ft | 412 kts | 323° |
| 2026-05-07 20:29 | -29.83795 | -61.94820 | 33879 ft | 419 kts | 326° |
| 2026-05-07 20:29 | -29.78606 | -61.98018 | 33877 ft | 427 kts | 327° |
| 2026-05-07 20:30 | -29.73376 | -62.01215 | 33870 ft | 428 kts | 327° |
| 2026-05-07 20:30 | -29.68098 | -62.04450 | 33864 ft | 427 kts | 326° |
| 2026-05-07 20:31 | -29.62856 | -62.07669 | 33869 ft | 426 kts | 326° |
| 2026-05-07 20:31 | -29.57638 | -62.10874 | 33871 ft | 425 kts | 326° |
| 2026-05-07 20:32 | -29.52461 | -62.14050 | 33873 ft | 423 kts | 326° |
| 2026-05-07 20:32 | -29.47273 | -62.17226 | 33865 ft | 421 kts | 326° |
| 2026-05-07 20:33 | -29.42101 | -62.20381 | 33882 ft | 419 kts | 326° |
| 2026-05-07 20:33 | -29.36969 | -62.23520 | 33877 ft | 421 kts | 326° |
| 2026-05-07 20:34 | -29.31745 | -62.26726 | 33887 ft | 430 kts | 325° |
| 2026-05-07 20:34 | -29.26411 | -62.29983 | 33850 ft | 436 kts | 325° |
| 2026-05-07 20:35 | -29.21051 | -62.33239 | 33874 ft | 435 kts | 325° |
| 2026-05-07 20:35 | -29.15710 | -62.36484 | 33876 ft | 434 kts | 325° |
| 2026-05-07 20:36 | -29.10373 | -62.39725 | 33879 ft | 433 kts | 325° |
| 2026-05-07 20:36 | -29.05096 | -62.42925 | 33832 ft | 432 kts | 325° |
| 2026-05-07 20:37 | -28.99799 | -62.46132 | 33872 ft | 429 kts | 324° |
| 2026-05-07 20:37 | -28.94513 | -62.49329 | 33886 ft | 428 kts | 324° |
| 2026-05-07 20:38 | -28.89246 | -62.52504 | 33885 ft | 428 kts | 324° |
| 2026-05-07 20:38 | -28.83938 | -62.55720 | 33893 ft | 436 kts | 323° |
| 2026-05-07 20:39 | -28.78892 | -62.59524 | 33885 ft | 435 kts | 316° |
| 2026-05-07 20:39 | -28.74082 | -62.63640 | 33886 ft | 434 kts | 315° |
| 2026-05-07 20:40 | -28.69231 | -62.67765 | 33885 ft | 434 kts | 316° |
| 2026-05-07 20:40 | -28.64362 | -62.71836 | 33893 ft | 434 kts | 316° |
| 2026-05-07 20:41 | -28.59480 | -62.75880 | 33822 ft | 434 kts | 315° |
| 2026-05-07 20:41 | -28.54602 | -62.79909 | 33884 ft | 432 kts | 315° |
| 2026-05-07 20:42 | -28.49734 | -62.83928 | 33902 ft | 432 kts | 314° |
| 2026-05-07 20:42 | -28.44858 | -62.87953 | 33908 ft | 434 kts | 314° |
| 2026-05-07 20:43 | -28.39941 | -62.92006 | 33906 ft | 438 kts | 314° |
| 2026-05-07 20:43 | -28.35022 | -62.96054 | 33904 ft | 441 kts | 314° |
| 2026-05-07 20:44 | -28.30036 | -63.00149 | 33908 ft | 444 kts | 314° |
| 2026-05-07 20:44 | -28.25025 | -63.04260 | 33901 ft | 446 kts | 314° |
| 2026-05-07 20:45 | -28.19985 | -63.08389 | 33896 ft | 446 kts | 314° |
| 2026-05-07 20:45 | -28.14947 | -63.12512 | 33837 ft | 446 kts | 314° |
| 2026-05-07 20:46 | -28.09955 | -63.16594 | 33879 ft | 444 kts | 312° |
| 2026-05-07 20:46 | -28.04940 | -63.20696 | 33901 ft | 446 kts | 312° |
| 2026-05-07 20:47 | -27.99895 | -63.24815 | 33913 ft | 448 kts | 313° |
| 2026-05-07 20:47 | -27.94819 | -63.28953 | 33911 ft | 451 kts | 313° |
| 2026-05-07 20:48 | -27.89718 | -63.33103 | 33899 ft | 451 kts | 313° |
| 2026-05-07 20:48 | -27.84613 | -63.37251 | 33904 ft | 452 kts | 313° |
| 2026-05-07 20:49 | -27.79504 | -63.41398 | 33903 ft | 452 kts | 313° |
| 2026-05-07 20:49 | -27.74388 | -63.45547 | 33882 ft | 452 kts | 312° |
| 2026-05-07 20:50 | -27.69281 | -63.49686 | 33860 ft | 453 kts | 312° |
| 2026-05-07 20:50 | -27.64163 | -63.53828 | 33899 ft | 453 kts | 312° |
| 2026-05-07 20:51 | -27.59039 | -63.57970 | 33910 ft | 454 kts | 312° |
| 2026-05-07 20:51 | -27.53903 | -63.62116 | 33926 ft | 455 kts | 313° |
| 2026-05-07 20:52 | -27.48773 | -63.66252 | 33916 ft | 456 kts | 313° |
| 2026-05-07 20:52 | -27.43605 | -63.70412 | 33896 ft | 456 kts | 313° |
| 2026-05-07 20:53 | -27.38454 | -63.74553 | 33904 ft | 456 kts | 313° |
| 2026-05-07 20:53 | -27.33278 | -63.78714 | 33911 ft | 457 kts | 313° |
| 2026-05-07 20:54 | -27.28095 | -63.82874 | 33921 ft | 459 kts | 313° |
| 2026-05-07 20:54 | -27.22886 | -63.87048 | 33852 ft | 461 kts | 313° |
| 2026-05-07 20:55 | -27.17690 | -63.91202 | 33906 ft | 461 kts | 313° |
| 2026-05-07 20:55 | -27.12456 | -63.95383 | 33921 ft | 461 kts | 313° |
| 2026-05-07 20:56 | -27.07221 | -63.99558 | 33919 ft | 462 kts | 314° |
| 2026-05-07 20:56 | -27.02829 | -64.03053 | 33920 ft | 461 kts | 314° |
| 2026-05-07 20:57 | -26.97598 | -64.07218 | 33880 ft | 460 kts | 314° |
| 2026-05-07 20:57 | -26.92401 | -64.11405 | 33912 ft | 459 kts | 313° |
| 2026-05-07 20:58 | -26.87239 | -64.15616 | 33924 ft | 459 kts | 313° |
| 2026-05-07 20:58 | -26.82106 | -64.19786 | 33922 ft | 459 kts | 313° |
| 2026-05-07 20:59 | -26.76928 | -64.23973 | 33928 ft | 460 kts | 313° |
| 2026-05-07 20:59 | -26.71741 | -64.28155 | 33927 ft | 458 kts | 314° |
| 2026-05-07 21:00 | -26.66561 | -64.32326 | 33919 ft | 458 kts | 314° |
| 2026-05-07 21:00 | -26.61379 | -64.36497 | 33933 ft | 458 kts | 314° |
| 2026-05-07 21:01 | -26.56277 | -64.40589 | 33914 ft | 443 kts | 314° |
| 2026-05-07 21:01 | -26.53806 | -64.42560 | 33911 ft | 427 kts | 313° |
| 2026-05-07 21:01 | -26.51431 | -64.44455 | 33866 ft | 413 kts | 313° |
| 2026-05-07 21:01 | -26.49135 | -64.46290 | 33900 ft | 399 kts | 313° |
| 2026-05-07 21:02 | -26.46917 | -64.48066 | 33920 ft | 387 kts | 313° |
| 2026-05-07 21:02 | -26.42539 | -64.51599 | 33958 ft | 392 kts | 313° |
| 2026-05-07 21:03 | -26.38077 | -64.55195 | 33675 ft | 395 kts | 313° |
| 2026-05-07 21:03 | -26.35823 | -64.57007 | 32809 ft | 405 kts | 313° |
| 2026-05-07 21:03 | -26.33489 | -64.58890 | 31543 ft | 424 kts | 314° |
| 2026-05-07 21:03 | -26.31030 | -64.60871 | 30314 ft | 445 kts | 315° |
| 2026-05-07 21:04 | -26.28499 | -64.62884 | 29623 ft | 445 kts | 315° |
| 2026-05-07 21:04 | -26.25998 | -64.64856 | 29216 ft | 438 kts | 315° |
| 2026-05-07 21:04 | -26.23525 | -64.66806 | 28791 ft | 431 kts | 315° |
| 2026-05-07 21:04 | -26.21124 | -64.68709 | 28275 ft | 427 kts | 315° |
| 2026-05-07 21:05 | -26.18712 | -64.70627 | 27655 ft | 425 kts | 315° |
| 2026-05-07 21:05 | -26.16280 | -64.72571 | 26533 ft | 436 kts | 315° |
| 2026-05-07 21:05 | -26.13788 | -64.74564 | 25638 ft | 443 kts | 315° |
| 2026-05-07 21:05 | -26.11284 | -64.76554 | 25039 ft | 441 kts | 316° |
| 2026-05-07 21:06 | -26.08802 | -64.78518 | 24587 ft | 435 kts | 315° |
| 2026-05-07 21:06 | -26.06353 | -64.80455 | 24110 ft | 430 kts | 315° |
| 2026-05-07 21:06 | -26.03926 | -64.82380 | 23577 ft | 427 kts | 315° |
| 2026-05-07 21:06 | -26.01519 | -64.84290 | 22937 ft | 424 kts | 315° |
| 2026-05-07 21:07 | -25.99136 | -64.86181 | 22380 ft | 419 kts | 316° |
| 2026-05-07 21:07 | -25.96779 | -64.88048 | 21987 ft | 410 kts | 316° |
| 2026-05-07 21:07 | -25.94487 | -64.89860 | 21755 ft | 398 kts | 315° |
| 2026-05-07 21:07 | -25.92258 | -64.91626 | 21496 ft | 389 kts | 315° |
| 2026-05-07 21:08 | -25.90076 | -64.93355 | 21251 ft | 380 kts | 315° |
| 2026-05-07 21:08 | -25.87945 | -64.95044 | 20990 ft | 372 kts | 315° |
| 2026-05-07 21:08 | -25.85859 | -64.96695 | 20739 ft | 365 kts | 315° |
| 2026-05-07 21:08 | -25.83812 | -64.98316 | 20482 ft | 358 kts | 315° |
| 2026-05-07 21:09 | -25.81800 | -64.99910 | 20167 ft | 353 kts | 315° |
| 2026-05-07 21:09 | -25.79808 | -65.01487 | 19809 ft | 350 kts | 315° |
| 2026-05-07 21:09 | -25.77836 | -65.03044 | 19474 ft | 347 kts | 315° |
| 2026-05-07 21:09 | -25.75876 | -65.04590 | 19126 ft | 344 kts | 315° |
| 2026-05-07 21:10 | -25.73927 | -65.06126 | 18786 ft | 341 kts | 315° |
| 2026-05-07 21:10 | -25.72004 | -65.07646 | 18441 ft | 339 kts | 315° |
| 2026-05-07 21:10 | -25.70091 | -65.09155 | 18069 ft | 336 kts | 316° |
| 2026-05-07 21:10 | -25.68136 | -65.10560 | 17902 ft | 331 kts | 320° |
| 2026-05-07 21:11 | -25.66191 | -65.11835 | 17581 ft | 329 kts | 321° |
| 2026-05-07 21:11 | -25.64216 | -65.13100 | 17258 ft | 327 kts | 321° |
| 2026-05-07 21:11 | -25.60283 | -65.15626 | 16566 ft | 326 kts | 321° |
| 2026-05-07 21:12 | -25.58323 | -65.16893 | 16188 ft | 325 kts | 321° |
| 2026-05-07 21:12 | -25.56382 | -65.18151 | 15854 ft | 322 kts | 321° |
| 2026-05-07 21:12 | -25.54456 | -65.19402 | 15505 ft | 321 kts | 321° |
| 2026-05-07 21:12 | -25.52536 | -65.20651 | 15158 ft | 320 kts | 321° |
| 2026-05-07 21:13 | -25.50620 | -65.21896 | 14826 ft | 318 kts | 321° |
| 2026-05-07 21:13 | -25.48711 | -65.23134 | 14474 ft | 317 kts | 321° |
| 2026-05-07 21:13 | -25.46805 | -65.24371 | 14150 ft | 316 kts | 321° |
| 2026-05-07 21:13 | -25.44905 | -65.25607 | 13799 ft | 316 kts | 321° |
| 2026-05-07 21:14 | -25.43030 | -65.26829 | 13432 ft | 315 kts | 322° |
| 2026-05-07 21:14 | -25.41148 | -65.28055 | 13049 ft | 314 kts | 322° |
| 2026-05-07 21:14 | -25.39269 | -65.29275 | 12680 ft | 312 kts | 323° |
| 2026-05-07 21:14 | -25.37409 | -65.30483 | 12334 ft | 309 kts | 324° |
| 2026-05-07 21:15 | -25.35559 | -65.31684 | 11996 ft | 307 kts | 325° |
| 2026-05-07 21:15 | -25.33717 | -65.32881 | 11644 ft | 304 kts | 325° |
| 2026-05-07 21:15 | -25.31900 | -65.34063 | 11311 ft | 302 kts | 326° |
| 2026-05-07 21:15 | -25.30091 | -65.35240 | 10993 ft | 301 kts | 327° |
| 2026-05-07 21:16 | -25.28291 | -65.36408 | 10685 ft | 299 kts | 327° |
| 2026-05-07 21:16 | -25.26508 | -65.37567 | 10425 ft | 295 kts | 328° |
| 2026-05-07 21:16 | -25.24765 | -65.38697 | 10170 ft | 293 kts | 328° |
| 2026-05-07 21:16 | -25.23011 | -65.39833 | 9912 ft | 291 kts | 329° |
| 2026-05-07 21:17 | -25.21301 | -65.40939 | 9894 ft | 278 kts | 329° |
| 2026-05-07 21:17 | -25.19610 | -65.42035 | 9414 ft | 283 kts | 329° |
| 2026-05-07 21:17 | -25.17920 | -65.43130 | 9086 ft | 281 kts | 329° |
| 2026-05-07 21:17 | -25.16243 | -65.44217 | 8927 ft | 274 kts | 329° |
| 2026-05-07 21:18 | -25.14640 | -65.45261 | 8930 ft | 262 kts | 329° |
| 2026-05-07 21:18 | -25.13098 | -65.46269 | 8730 ft | 257 kts | 329° |
| 2026-05-07 21:18 | -25.11561 | -65.47271 | 8479 ft | 255 kts | 329° |
| 2026-05-07 21:18 | -25.10053 | -65.48252 | 8203 ft | 248 kts | 329° |
| 2026-05-07 21:19 | -25.08588 | -65.49206 | 7959 ft | 243 kts | 329° |
| 2026-05-07 21:19 | -25.07135 | -65.50153 | 7710 ft | 242 kts | 329° |
| 2026-05-07 21:19 | -25.05694 | -65.51093 | 7463 ft | 240 kts | 329° |
| 2026-05-07 21:19 | -25.04255 | -65.52018 | 7223 ft | 238 kts | 334° |
| 2026-05-07 21:20 | -25.02681 | -65.52380 | 7043 ft | 231 kts | 12° |
| 2026-05-07 21:20 | -25.01175 | -65.51799 | 6829 ft | 234 kts | 24° |
| 2026-05-07 21:20 | -24.99591 | -65.51347 | 6533 ft | 239 kts | 14° |
| 2026-05-07 21:20 | -24.97970 | -65.50993 | 6203 ft | 233 kts | 15° |
| 2026-05-07 21:21 | -24.96425 | -65.50667 | 5896 ft | 219 kts | 14° |
| 2026-05-07 21:21 | -24.94969 | -65.50382 | 5620 ft | 205 kts | 12° |
| 2026-05-07 21:21 | -24.93603 | -65.50118 | 5342 ft | 195 kts | 13° |
| 2026-05-07 21:21 | -24.92291 | -65.49867 | 5119 ft | 186 kts | 13° |
| 2026-05-07 21:22 | -24.91061 | -65.49651 | 4898 ft | 170 kts | 11° |
| 2026-05-07 21:22 | -24.89935 | -65.49520 | 4614 ft | 158 kts | 6° |
| 2026-05-07 21:22 | -24.88879 | -65.49334 | 4385 ft | 149 kts | 12° |
| 2026-05-07 21:22 | -24.87843 | -65.49095 | 4155 ft | 154 kts | 9° |
| 2026-05-07 21:23 | -24.86799 | -65.48877 | 4021 ft | 147 kts | 11° |
| 2026-05-07 21:23 | -24.85889 | -65.48687 | 4018 ft | 115 kts | 11° |
| 2026-05-07 21:23 | -24.85248 | -65.48551 | 4016 ft | 72 kts | 11° |
| 2026-05-07 21:23 | -24.84948 | -65.48487 | 4017 ft | 28 kts | 11° |
| 2026-05-07 21:24 | -24.84764 | -65.48449 | 4017 ft | 25 kts | 12° |
| 2026-05-07 21:24 | -24.84632 | -65.48350 | 4007 ft | 24 kts | 43° |
| 2026-05-07 21:24 | -24.84578 | -65.48229 | 4016 ft | 17 kts | 72° |
| 2026-05-07 21:24 | -24.84542 | -65.48106 | 4016 ft | 17 kts | 72° |
| 2026-05-07 21:25 | -24.84518 | -65.48024 | 4016 ft | 0 kts | 71° |
| 2026-05-07 21:26 | -24.84518 | -65.48023 | 4016 ft | 1 kts | 71° |
| 2026-05-07 21:26 | -24.84511 | -65.48001 | 4016 ft | 5 kts | 70° |
| 2026-05-07 21:26 | -24.84499 | -65.47955 | 4016 ft | 7 kts | 81° |
| 2026-05-07 21:26 | -24.84495 | -65.47911 | 4016 ft | 6 kts | 45° |
| 2026-05-07 21:27 | -24.84476 | -65.47901 | 4016 ft | 2 kts | 21° |
| 2026-05-07 21:27 | -24.84470 | -65.47899 | 4016 ft | 0 kts | 21° |